createdAt,value
2023-04-25T00:01:45.075Z,86.26
2023-04-25T00:03:48.956Z,85.75
2023-04-25T00:05:52.555Z,86.95
2023-04-25T00:07:55.807Z,87.62
2023-04-25T00:09:58.946Z,87.72
2023-04-25T00:12:03.447Z,86.51
2023-04-25T00:14:07.671Z,86.86
2023-04-25T00:16:11.806Z,87.83
2023-04-25T00:18:14.907Z,88.62
2023-04-25T00:20:17.996Z,87.83
2023-04-25T00:22:21.806Z,88.11
2023-04-25T00:24:24.809Z,89.57
2023-04-25T00:26:28.160Z,88.58
2023-04-25T00:28:32.558Z,90.19
2023-04-25T00:30:35.774Z,89.51
2023-04-25T00:32:38.893Z,89.12
2023-04-25T00:34:42.334Z,89.78
2023-04-25T00:36:45.946Z,90.26
2023-04-25T00:38:49.028Z,89.62
2023-04-25T00:40:52.187Z,90.72
2023-04-25T00:42:55.476Z,90.52
2023-04-25T00:45:00.802Z,89.80
2023-04-25T00:47:04.420Z,90.48
2023-04-25T00:49:07.661Z,89.33
2023-04-25T00:51:12.745Z,89.50
2023-04-25T00:53:15.942Z,90.31
2023-04-25T00:55:19.160Z,89.50
2023-04-25T00:57:22.328Z,89.87
2023-04-25T00:59:25.991Z,89.98
2023-04-25T01:01:30.833Z,90.02
2023-04-25T01:03:36.648Z,89.51
2023-04-25T01:05:39.927Z,89.96
2023-04-25T01:07:43.509Z,90.27
2023-04-25T01:09:46.734Z,90.09
2023-04-25T01:11:49.754Z,90.24
2023-04-25T01:13:53.551Z,90.04
2023-04-25T01:15:56.953Z,90.17
2023-04-25T01:18:03.101Z,90.17
2023-04-25T01:20:08.322Z,90.60
2023-04-25T01:22:12.970Z,90.94
2023-04-25T01:24:16.075Z,91.22
2023-04-25T01:26:19.477Z,90.99
2023-04-25T01:28:23.103Z,89.86
2023-04-25T01:30:26.918Z,90.14
2023-04-25T01:32:30.326Z,90.17
2023-04-25T01:34:33.527Z,90.49
2023-04-25T01:36:36.573Z,90.77
2023-04-25T01:38:41.255Z,90.91
2023-04-25T01:40:47.169Z,91.42
2023-04-25T01:42:50.749Z,91.83
2023-04-25T01:44:53.884Z,91.30
2023-04-25T01:46:57.269Z,90.87
2023-04-25T01:49:00.293Z,91.38
2023-04-25T01:51:03.443Z,90.95
2023-04-25T01:53:06.634Z,91.82
2023-04-25T01:55:11.588Z,91.74
2023-04-25T01:57:19.499Z,92.06
2023-04-25T01:59:23.386Z,91.33
2023-04-25T02:01:44.775Z,92.00
2023-04-25T02:03:57.256Z,92.37
2023-04-25T02:06:06.457Z,91.74
2023-04-25T02:08:13.034Z,91.21
2023-04-25T02:10:17.526Z,91.46
2023-04-25T02:12:32.981Z,91.32
2023-04-25T02:14:55.986Z,90.49
2023-04-25T02:17:18.775Z,90.87
2023-04-25T02:19:22.192Z,91.83
2023-04-25T02:21:25.237Z,91.41
2023-04-25T02:23:28.270Z,91.58
2023-04-25T02:25:32.849Z,91.54
2023-04-25T02:27:36.084Z,91.87
2023-04-25T02:29:39.241Z,91.66
2023-04-25T02:31:42.352Z,92.10
2023-04-25T02:33:45.548Z,92.21
2023-04-25T02:35:48.680Z,92.60
2023-04-25T02:37:51.760Z,92.04
2023-04-25T02:39:54.863Z,92.52
2023-04-25T02:41:59.245Z,93.16
2023-04-25T02:44:02.356Z,93.30
2023-04-25T02:46:05.726Z,92.61
2023-04-25T02:48:08.918Z,92.34
2023-04-25T02:50:12.298Z,92.93
2023-04-25T02:52:17.079Z,93.21
2023-04-25T02:54:22.735Z,92.05
2023-04-25T02:56:27.186Z,92.59
2023-04-25T02:58:31.890Z,92.32
2023-04-25T03:00:35.033Z,92.34
2023-04-25T03:02:38.266Z,92.23
2023-04-25T03:04:41.802Z,91.62
2023-04-25T03:06:45.287Z,93.13
2023-04-25T03:08:48.297Z,92.82
2023-04-25T03:10:53.112Z,92.61
2023-04-25T03:12:56.165Z,92.77
2023-04-25T03:15:00.569Z,92.78
2023-04-25T03:17:03.720Z,92.55
2023-04-25T03:19:07.014Z,93.72
2023-04-25T03:21:10.223Z,92.01
2023-04-25T03:23:13.346Z,92.72
2023-04-25T03:25:19.012Z,93.91
2023-04-25T03:27:22.673Z,93.02
2023-04-25T03:29:27.550Z,93.34
2023-04-25T03:31:33.818Z,92.08
2023-04-25T03:33:36.909Z,92.59
2023-04-25T03:35:40.004Z,92.72
2023-04-25T03:37:46.682Z,92.50
2023-04-25T03:39:54.929Z,92.25
2023-04-25T03:42:00.427Z,92.80
2023-04-25T03:44:05.698Z,93.21
2023-04-25T03:46:09.701Z,92.91
2023-04-25T03:48:14.372Z,94.15
2023-04-25T03:50:17.391Z,93.46
2023-04-25T03:52:20.536Z,93.41
2023-04-25T03:54:24.339Z,93.54
2023-04-25T03:56:34.323Z,93.22
2023-04-25T03:58:45.910Z,93.58
2023-04-25T04:00:50.366Z,93.13
2023-04-25T04:02:53.912Z,93.34
2023-04-25T04:04:58.723Z,93.73
2023-04-25T04:07:01.926Z,93.35
2023-04-25T04:09:11.993Z,93.75
2023-04-25T04:11:16.766Z,93.72
2023-04-25T04:13:19.883Z,94.07
2023-04-25T04:15:23.197Z,92.98
2023-04-25T04:17:26.833Z,93.14
2023-04-25T04:19:30.011Z,92.89
2023-04-25T04:21:46.395Z,92.85
2023-04-25T04:23:49.800Z,92.69
2023-04-25T04:25:53.804Z,92.66
2023-04-25T04:28:15.478Z,93.04
2023-04-25T04:30:33.417Z,92.09
2023-04-25T04:32:42.891Z,91.80
2023-04-25T04:34:48.308Z,92.16
2023-04-25T04:36:53.978Z,92.59
2023-04-25T04:38:57.437Z,92.77
2023-04-25T04:41:11.527Z,93.22
2023-04-25T04:43:25.900Z,92.93
2023-04-25T04:45:32.140Z,92.33
2023-04-25T04:47:47.123Z,92.94
2023-04-25T04:49:55.097Z,93.46
2023-04-25T04:52:17.809Z,93.02
2023-04-25T04:54:40.387Z,92.57
2023-04-25T04:56:53.483Z,91.43
2023-04-25T04:59:19.767Z,91.48
2023-04-25T05:01:43.199Z,90.70
2023-04-25T05:04:18.884Z,91.30
2023-04-25T05:06:40.664Z,90.14
2023-04-25T05:08:54.401Z,91.66
2023-04-25T05:11:14.858Z,91.59
2023-04-25T05:13:31.294Z,90.72
2023-04-25T05:15:51.486Z,90.77
2023-04-25T05:18:02.567Z,90.88
2023-04-25T05:20:28.691Z,91.54
2023-04-25T05:22:37.598Z,91.10
2023-04-25T05:24:56.366Z,90.37
2023-04-25T05:27:20.308Z,91.38
2023-04-25T05:29:45.303Z,91.85
2023-04-25T05:31:58.690Z,90.25
2023-04-25T05:34:01.845Z,89.97
2023-04-25T05:36:16.605Z,91.21
2023-04-25T05:38:21.017Z,90.40
2023-04-25T05:40:44.357Z,91.10
2023-04-25T05:42:53.291Z,89.56
2023-04-25T05:45:19.222Z,88.67
2023-04-25T05:47:42.234Z,88.61
2023-04-25T05:49:54.306Z,89.66
2023-04-25T05:52:10.347Z,86.92
2023-04-25T05:54:21.816Z,87.86
2023-04-25T05:56:26.647Z,86.50
2023-04-25T05:58:31.073Z,87.45
2023-04-25T06:00:35.647Z,85.76
2023-04-25T06:02:38.800Z,85.98
2023-04-25T06:04:42.205Z,85.21
2023-04-25T06:06:45.511Z,86.36
2023-04-25T06:08:48.616Z,84.71
2023-04-25T06:10:51.738Z,85.12
2023-04-25T06:12:57.005Z,84.99
2023-04-25T06:15:02.130Z,84.48
2023-04-25T06:17:09.414Z,85.35
2023-04-25T06:19:12.669Z,85.12
2023-04-25T06:21:15.788Z,85.51
2023-04-25T06:23:19.202Z,85.19
2023-04-25T06:25:29.161Z,85.45
2023-04-25T06:27:32.942Z,84.10
2023-04-25T06:29:37.512Z,85.79
2023-04-25T06:31:40.741Z,85.29
2023-04-25T06:33:44.077Z,85.82
2023-04-25T06:35:47.178Z,86.21
2023-04-25T06:37:53.381Z,84.07
2023-04-25T06:39:59.156Z,83.68
2023-04-25T06:42:02.241Z,84.42
2023-04-25T06:44:24.142Z,81.81
2023-04-25T06:46:31.163Z,81.98
2023-04-25T06:48:35.681Z,80.99
2023-04-25T06:50:38.805Z,80.98
2023-04-25T06:52:41.877Z,82.79
2023-04-25T06:54:45.050Z,83.05
2023-04-25T06:57:11.859Z,82.04
2023-04-25T06:59:15.027Z,82.45
2023-04-25T07:01:20.090Z,81.97
2023-04-25T07:03:25.038Z,82.62
2023-04-25T07:05:32.387Z,82.57
2023-04-25T07:07:36.192Z,82.53
2023-04-25T07:09:39.345Z,82.44
2023-04-25T07:11:42.968Z,83.79
2023-04-25T07:13:46.176Z,84.55
2023-04-25T07:15:49.836Z,83.39
2023-04-25T07:17:54.722Z,83.00
2023-04-25T07:19:59.342Z,82.02
2023-04-25T07:22:06.649Z,82.75
2023-04-25T07:24:11.769Z,81.52
2023-04-25T07:26:19.302Z,80.94
2023-04-25T07:28:41.595Z,79.68
2023-04-25T07:30:44.877Z,81.19
2023-04-25T07:32:48.108Z,79.90
2023-04-25T07:34:52.187Z,82.13
2023-04-25T07:36:56.846Z,79.26
2023-04-25T07:39:02.417Z,79.07
2023-04-25T07:41:05.927Z,81.75
2023-04-25T07:43:09.114Z,81.91
2023-04-25T07:45:22.834Z,80.61
2023-04-25T07:47:26.555Z,81.09
2023-04-25T07:49:30.133Z,80.58
2023-04-25T07:51:33.431Z,79.13
2023-04-25T07:53:43.244Z,81.58
2023-04-25T07:55:49.585Z,83.05
2023-04-25T07:57:54.458Z,85.29
2023-04-25T07:59:57.596Z,87.00
2023-04-25T08:02:01.121Z,87.92
2023-04-25T08:04:04.664Z,88.49
2023-04-25T08:06:28.872Z,88.99
2023-04-25T08:08:51.119Z,88.80
2023-04-25T08:10:57.453Z,89.06
2023-04-25T08:13:00.801Z,90.21
2023-04-25T08:15:04.125Z,90.81
2023-04-25T08:17:12.126Z,90.33
2023-04-25T08:19:17.824Z,90.89
2023-04-25T08:21:22.395Z,90.28
2023-04-25T08:23:25.863Z,90.40
2023-04-25T08:25:42.175Z,90.10
2023-04-25T08:27:47.943Z,91.18
2023-04-25T08:29:54.265Z,88.59
2023-04-25T08:31:57.818Z,88.89
2023-04-25T08:34:01.043Z,88.99
2023-04-25T08:36:31.561Z,90.43
2023-04-25T08:38:41.617Z,89.35
2023-04-25T08:40:52.434Z,86.38
2023-04-25T08:42:58.226Z,88.71
2023-04-25T08:45:02.911Z,88.77
2023-04-25T08:47:10.960Z,88.18
2023-04-25T08:49:22.233Z,87.18
2023-04-25T08:51:26.019Z,86.75
2023-04-25T08:53:31.181Z,87.78
2023-04-25T08:55:36.592Z,85.99
2023-04-25T08:57:43.693Z,86.02
2023-04-25T08:59:48.021Z,86.61
2023-04-25T09:01:51.479Z,86.51
2023-04-25T09:03:59.927Z,85.70
2023-04-25T09:06:03.707Z,85.37
2023-04-25T09:08:07.372Z,84.15
2023-04-25T09:10:11.418Z,85.42
2023-04-25T09:12:15.818Z,84.21
2023-04-25T09:14:21.977Z,83.39
2023-04-25T09:17:06.184Z,83.03
2023-04-25T09:19:38.205Z,82.02
2023-04-25T09:21:43.248Z,81.98
2023-04-25T09:23:48.014Z,82.10
2023-04-25T09:25:54.796Z,81.50
2023-04-25T09:27:58.081Z,80.50
2023-04-25T09:30:07.705Z,80.29
2023-04-25T09:32:29.158Z,80.22
2023-04-25T09:34:41.638Z,80.28
2023-04-25T09:36:44.754Z,79.84
2023-04-25T09:39:17.402Z,81.56
2023-04-25T09:41:28.005Z,79.81
2023-04-25T09:43:33.917Z,80.74
2023-04-25T09:45:46.842Z,79.22
2023-04-25T09:47:51.713Z,80.08
2023-04-25T09:50:00.520Z,80.07
2023-04-25T09:52:03.763Z,79.72
2023-04-25T09:54:19.549Z,79.63
2023-04-25T09:56:25.531Z,79.81
2023-04-25T09:58:33.179Z,81.04
2023-04-25T10:00:37.493Z,79.63
2023-04-25T10:02:56.680Z,79.78
2023-04-25T10:05:26.965Z,80.42
2023-04-25T10:07:32.417Z,79.97
2023-04-25T10:09:40.506Z,82.08
2023-04-25T10:11:43.808Z,81.64
2023-04-25T10:13:48.945Z,82.11
2023-04-25T10:15:53.350Z,82.56
2023-04-25T10:17:58.939Z,83.93
2023-04-25T10:20:04.961Z,85.60
2023-04-25T10:22:10.421Z,85.94
2023-04-25T10:24:13.635Z,84.01
2023-04-25T10:26:17.948Z,84.31
2023-04-25T10:28:21.625Z,84.31
2023-04-25T10:30:25.266Z,81.18
2023-04-25T10:32:30.715Z,80.76
2023-04-25T10:34:42.970Z,80.23
2023-04-25T10:36:51.871Z,79.97
2023-04-25T10:38:55.327Z,80.65
2023-04-25T10:41:06.000Z,80.83
2023-04-25T10:43:37.667Z,82.94
2023-04-25T10:45:53.408Z,82.22
2023-04-25T10:47:56.760Z,81.37
2023-04-25T10:50:07.307Z,81.06
2023-04-25T10:52:18.455Z,82.49
2023-04-25T10:54:22.115Z,83.83
2023-04-25T10:56:27.821Z,84.60
2023-04-25T10:58:30.892Z,83.96
2023-04-25T11:00:48.021Z,85.89
2023-04-25T11:03:01.285Z,87.28
2023-04-25T11:05:06.578Z,85.92
2023-04-25T11:07:16.202Z,86.37
2023-04-25T11:09:19.374Z,87.10
2023-04-25T11:11:22.568Z,86.63
2023-04-25T11:13:31.575Z,87.49
2023-04-25T11:15:34.615Z,88.70
2023-04-25T11:17:37.743Z,89.45
2023-04-25T11:19:41.107Z,91.12
2023-04-25T11:21:45.673Z,92.05
2023-04-25T11:23:49.250Z,91.17
2023-04-25T11:25:53.629Z,91.85
2023-04-25T11:27:58.151Z,92.90
2023-04-25T11:30:01.562Z,90.26
2023-04-25T11:32:04.972Z,91.85
2023-04-25T11:34:08.085Z,91.39
2023-04-25T11:36:12.022Z,92.75
2023-04-25T11:38:16.585Z,92.00
2023-04-25T11:40:22.741Z,91.66
2023-04-25T11:42:25.902Z,90.83
2023-04-25T11:44:29.110Z,91.49
2023-04-25T11:46:32.194Z,90.87
2023-04-25T11:48:39.589Z,90.74
2023-04-25T11:50:42.742Z,88.44
2023-04-25T11:52:47.610Z,89.78
2023-04-25T11:54:52.035Z,91.44
2023-04-25T11:56:55.195Z,91.07
2023-04-25T11:59:02.829Z,91.86
2023-04-25T12:01:06.943Z,91.12
2023-04-25T12:03:11.694Z,90.54
2023-04-25T12:05:31.188Z,90.89
2023-04-25T12:07:36.198Z,89.60
2023-04-25T12:09:40.972Z,88.12
2023-04-25T12:11:46.117Z,87.85
2023-04-25T12:13:54.261Z,88.51
2023-04-25T12:15:57.722Z,88.06
2023-04-25T12:18:00.766Z,87.46
2023-04-25T12:20:09.516Z,87.10
2023-04-25T12:22:23.171Z,88.47
2023-04-25T12:24:28.396Z,87.55
2023-04-25T12:29:01.372Z,85.46
2023-04-25T12:31:06.111Z,87.75
2023-04-25T12:33:09.280Z,86.90
2023-04-25T12:35:12.395Z,87.51
2023-04-25T12:37:15.976Z,88.69
2023-04-25T12:39:20.194Z,89.72
2023-04-25T12:41:23.196Z,90.36
2023-04-25T12:43:26.522Z,88.97
2023-04-25T12:45:31.255Z,88.30
2023-04-25T12:47:36.665Z,91.70
2023-04-25T12:49:39.780Z,90.54
2023-04-25T12:51:42.902Z,90.68
2023-04-25T12:53:45.990Z,91.00
2023-04-25T12:55:49.464Z,91.45
2023-04-25T12:57:52.632Z,91.44
2023-04-25T12:59:55.701Z,92.48
2023-04-25T13:02:00.465Z,91.65
2023-04-25T13:04:03.788Z,92.55
2023-04-25T13:06:07.861Z,92.23
2023-04-25T13:08:11.088Z,93.00
2023-04-25T13:10:14.330Z,91.64
2023-04-25T13:12:17.528Z,90.75
2023-04-25T13:14:20.663Z,92.70
2023-04-25T13:16:24.288Z,92.56
2023-04-25T13:18:28.667Z,93.09
2023-04-25T13:20:31.919Z,93.92
2023-04-25T13:22:35.309Z,96.25
2023-04-25T13:24:38.401Z,95.92
2023-04-25T13:26:41.558Z,95.19
2023-04-25T13:28:45.098Z,92.02
2023-04-25T13:30:49.162Z,91.98
2023-04-25T13:32:52.211Z,92.11
2023-04-25T13:34:57.061Z,93.83
2023-04-25T13:37:00.399Z,90.07
2023-04-25T13:39:05.004Z,92.06
2023-04-25T13:41:08.283Z,91.27
2023-04-25T13:43:11.486Z,89.71
2023-04-25T13:45:14.617Z,91.44
2023-04-25T13:47:17.934Z,89.24
2023-04-25T13:49:21.081Z,90.42
2023-04-25T13:51:26.942Z,91.13
2023-04-25T13:53:30.047Z,89.24
2023-04-25T13:55:33.251Z,89.47
2023-04-25T13:57:37.821Z,89.78
2023-04-25T13:59:42.749Z,90.00
2023-04-25T14:01:46.031Z,89.17
2023-04-25T14:03:49.396Z,90.01
2023-04-25T14:05:52.778Z,90.89
2023-04-25T14:07:57.369Z,89.14
2023-04-25T14:10:00.517Z,90.36
2023-04-25T14:12:04.107Z,87.03
2023-04-25T14:14:07.215Z,88.39
2023-04-25T14:16:10.472Z,88.10
2023-04-25T14:18:13.707Z,88.02
2023-04-25T14:20:16.896Z,86.91
2023-04-25T14:22:20.515Z,86.99
2023-04-25T14:24:25.098Z,87.09
2023-04-25T14:26:28.213Z,89.10
2023-04-25T14:28:31.305Z,87.34
2023-04-25T14:30:34.450Z,88.37
2023-04-25T14:32:37.663Z,89.01
2023-04-25T14:34:41.304Z,87.36
2023-04-25T14:36:44.518Z,88.37
2023-04-25T14:38:47.775Z,87.33
2023-04-25T14:40:52.284Z,85.59
2023-04-25T14:42:55.615Z,85.50
2023-04-25T14:44:58.794Z,83.66
2023-04-25T14:47:02.127Z,83.64
2023-04-25T14:49:05.645Z,84.57
2023-04-25T14:51:09.027Z,85.11
2023-04-25T14:53:12.303Z,84.01
2023-04-25T14:55:15.760Z,84.08
2023-04-25T14:57:20.238Z,81.80
2023-04-25T14:59:23.394Z,81.87
2023-04-25T15:01:27.094Z,81.11
2023-04-25T15:03:30.517Z,81.58
2023-04-25T15:05:33.912Z,82.04
2023-04-25T15:07:37.037Z,81.94
2023-04-25T15:09:40.269Z,82.16
2023-04-25T15:11:43.902Z,82.64
2023-04-25T15:13:48.671Z,82.30
2023-04-25T15:15:55.139Z,83.10
2023-04-25T15:17:59.500Z,82.73
2023-04-25T15:20:02.905Z,82.57
2023-04-25T15:22:07.814Z,82.38
2023-04-25T15:24:11.065Z,81.54
2023-04-25T15:26:14.107Z,81.74
2023-04-25T15:28:17.368Z,81.38
2023-04-25T15:30:22.074Z,81.75
2023-04-25T15:32:25.334Z,82.32
2023-04-25T15:34:28.627Z,82.33
2023-04-25T15:36:32.406Z,82.53
2023-04-25T15:38:35.389Z,81.19
2023-04-25T15:40:38.430Z,81.08
2023-04-25T15:42:43.755Z,80.56
2023-04-25T15:44:46.884Z,79.39
2023-04-25T15:46:52.572Z,80.08
2023-04-25T15:48:57.503Z,79.28
2023-04-25T15:51:00.930Z,79.44
2023-04-25T15:53:05.077Z,80.58
2023-04-25T15:55:11.713Z,80.59
2023-04-25T15:57:15.773Z,80.81
2023-04-25T15:59:18.920Z,79.85
2023-04-25T16:01:26.148Z,80.27
2023-04-25T16:03:32.715Z,79.79
2023-04-25T16:05:37.447Z,80.57
2023-04-25T16:07:40.911Z,79.61
2023-04-25T16:09:44.920Z,78.80
2023-04-25T16:11:48.009Z,78.34
2023-04-25T16:13:51.374Z,79.47
2023-04-25T16:15:54.624Z,79.48
2023-04-25T16:17:57.836Z,79.31
2023-04-25T16:20:07.083Z,79.70
2023-04-25T16:22:13.437Z,80.89
2023-04-25T16:24:16.546Z,80.57
2023-04-25T16:26:19.893Z,80.17
2023-04-25T16:28:23.159Z,80.60
2023-04-25T16:30:26.477Z,79.97
2023-04-25T16:32:29.609Z,80.39
2023-04-25T16:34:32.853Z,78.74
2023-04-25T16:36:37.260Z,77.49
2023-04-25T16:38:40.772Z,77.08
2023-04-25T16:40:43.981Z,77.74
2023-04-25T16:42:47.361Z,76.65
2023-04-25T16:44:50.475Z,75.25
2023-04-25T16:46:53.677Z,76.87
2023-04-25T16:48:56.807Z,75.07
2023-04-25T16:51:00.564Z,75.09
2023-04-25T16:53:05.425Z,74.23
2023-04-25T16:55:09.975Z,74.21
2023-04-25T16:57:13.801Z,75.62
2023-04-25T16:59:17.173Z,76.65
2023-04-25T17:01:21.385Z,77.28
2023-04-25T17:03:24.709Z,77.54
2023-04-25T17:05:28.244Z,77.04
2023-04-25T17:07:31.396Z,77.24
2023-04-25T17:09:36.267Z,77.31
2023-04-25T17:11:39.456Z,79.18
2023-04-25T17:13:43.507Z,79.41
2023-04-25T17:15:46.634Z,77.54
2023-04-25T17:17:50.033Z,79.12
2023-04-25T17:19:53.194Z,77.20
2023-04-25T17:21:56.480Z,77.49
2023-04-25T17:23:59.924Z,78.28
2023-04-25T17:26:04.602Z,79.04
2023-04-25T17:28:07.915Z,79.44
2023-04-25T17:30:12.553Z,79.83
2023-04-25T17:32:17.405Z,78.75
2023-04-25T17:34:20.884Z,80.20
2023-04-25T17:36:23.850Z,78.95
2023-04-25T17:38:27.695Z,79.12
2023-04-25T17:40:31.375Z,77.82
2023-04-25T17:42:36.353Z,78.24
2023-04-25T17:44:39.579Z,76.89
2023-04-25T17:46:42.740Z,77.82
2023-04-25T17:48:46.059Z,74.72
2023-04-25T17:50:49.166Z,74.95
2023-04-25T17:52:52.335Z,76.31
2023-04-25T17:54:55.517Z,76.66
2023-04-25T17:56:58.720Z,75.84
2023-04-25T17:59:03.431Z,75.81
2023-04-25T18:01:06.680Z,76.23
2023-04-25T18:03:10.053Z,78.41
2023-04-25T18:05:13.207Z,78.26
2023-04-25T18:07:16.645Z,77.68
2023-04-25T18:09:23.415Z,78.89
2023-04-25T18:11:26.825Z,78.82
2023-04-25T18:13:30.102Z,80.05
2023-04-25T18:15:34.657Z,80.00
2023-04-25T18:17:40.384Z,78.35
2023-04-25T18:19:43.993Z,78.75
2023-04-25T18:21:47.347Z,81.59
2023-04-25T18:23:50.514Z,80.17
2023-04-25T18:25:54.220Z,81.44
2023-04-25T18:27:57.468Z,82.19
2023-04-25T18:30:00.870Z,82.53
2023-04-25T18:32:05.732Z,81.59
2023-04-25T18:34:09.320Z,81.59
2023-04-25T18:36:12.379Z,80.66
2023-04-25T18:38:21.481Z,82.01
2023-04-25T18:40:31.736Z,82.73
2023-04-25T18:42:34.899Z,82.34
2023-04-25T18:44:40.090Z,81.44
2023-04-25T18:46:45.721Z,81.35
2023-04-25T18:48:51.182Z,82.48
2023-04-25T18:50:54.613Z,81.67
2023-04-25T18:52:57.693Z,81.92
2023-04-25T18:55:00.709Z,82.08
2023-04-25T18:57:04.001Z,83.65
2023-04-25T18:59:07.171Z,82.39
2023-04-25T19:01:10.526Z,83.51
2023-04-25T19:03:13.971Z,83.49
2023-04-25T19:05:18.738Z,83.94
2023-04-25T19:07:22.373Z,85.04
2023-04-25T19:09:25.906Z,83.57
2023-04-25T19:11:29.841Z,83.76
2023-04-25T19:13:32.968Z,83.51
2023-04-25T19:15:36.043Z,84.88
2023-04-25T19:17:39.228Z,84.54
2023-04-25T19:19:42.443Z,84.18
2023-04-25T19:21:47.115Z,84.45
2023-04-25T19:23:52.783Z,84.95
2023-04-25T19:25:56.381Z,83.88
2023-04-25T19:28:00.670Z,84.71
2023-04-25T19:30:08.773Z,85.43
2023-04-25T19:32:11.935Z,85.72
2023-04-25T19:34:15.516Z,85.99
2023-04-25T19:36:18.645Z,84.95
2023-04-25T19:38:24.391Z,85.03
2023-04-25T19:40:27.710Z,86.66
2023-04-25T19:42:30.789Z,86.45
2023-04-25T19:44:33.990Z,86.81
2023-04-25T19:46:38.416Z,86.18
2023-04-25T19:48:41.701Z,86.12
2023-04-25T19:50:44.800Z,86.78
2023-04-25T19:52:47.934Z,86.87
2023-04-25T19:54:52.379Z,86.79
2023-04-25T19:56:55.474Z,86.47
2023-04-25T19:58:58.802Z,86.40
2023-04-25T20:01:02.619Z,87.06
2023-04-25T20:03:05.900Z,86.75
2023-04-25T20:05:10.115Z,87.46
2023-04-25T20:07:14.277Z,88.08
2023-04-25T20:09:17.473Z,88.51
2023-04-25T20:11:22.481Z,88.97
2023-04-25T20:13:25.559Z,88.97
2023-04-25T20:15:28.972Z,89.28
2023-04-25T20:17:32.292Z,88.97
2023-04-25T20:19:36.352Z,87.60
2023-04-25T20:21:39.464Z,89.04
2023-04-25T20:23:43.903Z,89.50
2023-04-25T20:25:47.642Z,89.05
2023-04-25T20:27:52.104Z,89.53
2023-04-25T20:29:55.226Z,89.94
2023-04-25T20:31:58.421Z,90.00
2023-04-25T20:34:01.919Z,89.50
2023-04-25T20:36:05.407Z,89.15
2023-04-25T20:38:08.675Z,88.90
2023-04-25T20:40:12.709Z,89.66
2023-04-25T20:42:15.810Z,88.99
2023-04-25T20:44:22.768Z,89.94
2023-04-25T20:46:26.482Z,88.87
2023-04-25T20:48:29.843Z,88.84
2023-04-25T20:50:33.990Z,90.03
2023-04-25T20:52:37.402Z,89.64
2023-04-25T20:54:40.599Z,91.07
2023-04-25T20:56:43.705Z,90.52
2023-04-25T20:58:47.391Z,90.32
2023-04-25T21:00:51.984Z,89.98
2023-04-25T21:02:55.567Z,90.66
2023-04-25T21:05:01.804Z,90.82
2023-04-25T21:07:05.240Z,90.52
2023-04-25T21:09:09.636Z,91.15
2023-04-25T21:11:12.798Z,90.94
2023-04-25T21:13:15.967Z,91.83
2023-04-25T21:15:20.511Z,92.06
2023-04-25T21:17:25.076Z,91.53
2023-04-25T21:19:28.117Z,91.39
2023-04-25T21:21:31.500Z,91.40
2023-04-25T21:23:34.798Z,91.29
2023-04-25T21:25:38.051Z,90.78
2023-04-25T21:27:41.155Z,91.42
2023-04-25T21:29:44.853Z,90.66
2023-04-25T21:31:48.206Z,90.43
2023-04-25T21:33:53.169Z,90.59
2023-04-25T21:35:56.329Z,91.24
2023-04-25T21:37:59.466Z,91.07
2023-04-25T21:40:03.043Z,91.23
2023-04-25T21:42:09.019Z,91.45
2023-04-25T21:44:14.543Z,91.18
2023-04-25T21:46:23.308Z,90.96
2023-04-25T21:48:26.793Z,92.00
2023-04-25T21:50:31.624Z,91.10
2023-04-25T21:52:34.914Z,91.43
2023-04-25T21:54:37.991Z,90.65
2023-04-25T21:56:41.785Z,91.05
2023-04-25T21:58:44.855Z,91.52
2023-04-25T22:00:48.009Z,91.62
2023-04-25T22:02:53.642Z,91.88
2023-04-25T22:04:57.006Z,92.01
2023-04-25T22:07:01.468Z,92.56
2023-04-25T22:09:04.869Z,92.54
2023-04-25T22:11:08.504Z,91.95
2023-04-25T22:13:11.755Z,92.23
2023-04-25T22:15:18.848Z,91.46
2023-04-25T22:17:25.828Z,92.04
2023-04-25T22:19:30.546Z,91.93
2023-04-25T22:21:33.714Z,91.89
2023-04-25T22:23:38.462Z,91.96
2023-04-25T22:25:42.393Z,92.25
2023-04-25T22:27:45.505Z,92.21
2023-04-25T22:29:48.618Z,92.82
2023-04-25T22:31:52.602Z,93.17
2023-04-25T22:33:56.127Z,93.19
2023-04-25T22:35:59.721Z,93.16
2023-04-25T22:38:03.648Z,93.43
2023-04-25T22:40:10.176Z,93.48
2023-04-25T22:42:13.250Z,93.29
2023-04-25T22:44:16.738Z,92.88
2023-04-25T22:46:20.477Z,93.29
2023-04-25T22:48:23.746Z,92.78
2023-04-25T22:50:27.167Z,92.60
2023-04-25T22:52:30.332Z,92.75
2023-04-25T22:54:33.502Z,92.98
2023-04-25T22:56:38.024Z,92.94
2023-04-25T22:58:41.502Z,92.92
2023-04-25T23:00:45.031Z,92.84
2023-04-25T23:02:48.751Z,92.87
2023-04-25T23:04:53.262Z,93.00
2023-04-25T23:06:56.389Z,93.14
2023-04-25T23:09:00.648Z,92.92
2023-04-25T23:11:07.916Z,92.89
2023-04-25T23:13:12.468Z,93.06
2023-04-25T23:15:15.727Z,92.62
2023-04-25T23:17:18.964Z,92.75
2023-04-25T23:19:22.075Z,92.71
2023-04-25T23:21:25.530Z,92.75
2023-04-25T23:23:28.623Z,92.82
2023-04-25T23:25:31.783Z,93.08
2023-04-25T23:27:34.780Z,93.03
2023-04-25T23:29:40.597Z,93.33
2023-04-25T23:31:43.647Z,93.41
2023-04-25T23:33:46.654Z,93.42
2023-04-25T23:35:49.756Z,93.40
2023-04-25T23:37:53.007Z,93.47
2023-04-25T23:39:56.066Z,93.07
2023-04-25T23:41:59.178Z,93.46
2023-04-25T23:44:03.458Z,93.11
2023-04-25T23:46:09.529Z,93.31
2023-04-25T23:48:13.088Z,93.39
2023-04-25T23:50:16.323Z,93.12
2023-04-25T23:52:19.419Z,93.08
2023-04-25T23:54:22.668Z,92.96
2023-04-25T23:56:26.401Z,93.02
2023-04-25T23:58:29.453Z,92.21
